createdAt,value
2018-09-15T00:00:21.539Z,15.80
2018-09-15T00:02:51.022Z,15.80
2018-09-15T00:05:19.726Z,15.80
2018-09-15T00:07:48.687Z,15.80
2018-09-15T00:10:16.920Z,15.80
2018-09-15T00:12:44.952Z,15.70
2018-09-15T00:15:13.034Z,15.70
2018-09-15T00:17:43.072Z,15.70
2018-09-15T00:20:11.279Z,15.80
2018-09-15T00:22:39.437Z,15.70
2018-09-15T00:25:07.658Z,15.60
2018-09-15T00:27:35.792Z,15.60
2018-09-15T00:30:03.972Z,15.60
2018-09-15T00:32:32.179Z,15.60
2018-09-15T00:35:00.395Z,15.80
2018-09-15T00:37:28.618Z,15.80
2018-09-15T00:39:56.847Z,15.80
2018-09-15T00:42:24.932Z,15.70
2018-09-15T00:44:53.014Z,15.70
2018-09-15T00:47:21.120Z,15.60
2018-09-15T00:49:49.339Z,15.60
2018-09-15T00:52:17.436Z,15.50
2018-09-15T00:54:46.044Z,15.40
2018-09-15T00:57:14.164Z,15.30
2018-09-15T00:59:42.392Z,15.30
2018-09-15T01:02:10.487Z,15.30
2018-09-15T01:04:38.524Z,15.20
2018-09-15T01:07:06.672Z,15.10
2018-09-15T01:09:34.964Z,15.00
2018-09-15T01:12:03.178Z,14.90
2018-09-15T01:14:33.374Z,14.80
2018-09-15T01:17:01.745Z,14.70
2018-09-15T01:19:29.859Z,14.70
2018-09-15T01:21:58.205Z,14.60
2018-09-15T01:24:26.277Z,14.50
2018-09-15T01:26:54.611Z,14.50
2018-09-15T01:29:22.731Z,14.50
2018-09-15T01:31:51.024Z,14.60
2018-09-15T01:34:19.284Z,14.50
2018-09-15T01:36:47.499Z,14.60
2018-09-15T01:39:15.849Z,14.40
2018-09-15T01:41:44.758Z,14.30
2018-09-15T01:44:13.571Z,14.30
2018-09-15T01:46:42.298Z,14.20
2018-09-15T01:49:10.538Z,14.40
2018-09-15T01:51:38.977Z,14.40
2018-09-15T01:54:07.066Z,14.40
2018-09-15T01:56:35.281Z,14.40
2018-09-15T01:59:03.446Z,14.40
2018-09-15T02:01:31.513Z,14.40
2018-09-15T02:03:59.616Z,14.30
2018-09-15T02:06:27.677Z,14.30
2018-09-15T02:08:55.749Z,14.20
2018-09-15T02:11:23.772Z,14.30
2018-09-15T02:13:51.851Z,14.40
2018-09-15T02:16:19.940Z,14.40
2018-09-15T02:18:48.151Z,14.30
2018-09-15T02:21:16.239Z,14.40
2018-09-15T02:23:44.322Z,14.50
2018-09-15T02:26:12.360Z,14.40
2018-09-15T02:28:40.545Z,14.30
2018-09-15T02:31:08.620Z,14.40
2018-09-15T02:33:36.738Z,14.40
2018-09-15T02:36:04.832Z,14.40
2018-09-15T02:38:32.876Z,14.40
2018-09-15T02:41:00.938Z,14.40
2018-09-15T02:43:29.045Z,14.40
2018-09-15T02:45:57.151Z,14.30
2018-09-15T02:48:25.225Z,14.20
2018-09-15T02:50:53.351Z,14.20
2018-09-15T02:53:21.360Z,13.80
2018-09-15T02:55:49.485Z,13.70
2018-09-15T02:58:17.528Z,13.50
2018-09-15T03:00:45.680Z,13.40
2018-09-15T03:03:13.820Z,13.20
2018-09-15T03:05:41.922Z,13.20
2018-09-15T03:08:09.990Z,13.20
2018-09-15T03:10:38.054Z,13.20
2018-09-15T03:13:06.113Z,13.30
2018-09-15T03:15:34.195Z,13.50
2018-09-15T03:18:02.349Z,13.60
2018-09-15T03:20:30.462Z,13.60
2018-09-15T03:22:58.893Z,13.40
2018-09-15T03:25:27.093Z,13.50
2018-09-15T03:27:55.180Z,13.40
2018-09-15T03:30:23.258Z,13.60
2018-09-15T03:32:51.407Z,13.60
2018-09-15T03:35:19.555Z,13.40
2018-09-15T03:37:47.625Z,13.10
2018-09-15T03:40:15.633Z,13.10
2018-09-15T03:42:43.789Z,13.10
2018-09-15T03:45:11.866Z,13.10
2018-09-15T03:47:40.291Z,13.10
2018-09-15T03:50:08.438Z,13.00
2018-09-15T03:52:36.658Z,12.90
2018-09-15T03:55:04.855Z,12.90
2018-09-15T03:57:32.911Z,12.70
2018-09-15T04:00:01.089Z,13.00
2018-09-15T04:02:29.089Z,12.90
2018-09-15T04:04:57.164Z,13.00
2018-09-15T04:07:25.403Z,13.10
2018-09-15T04:09:53.451Z,12.90
2018-09-15T04:12:21.521Z,12.90
2018-09-15T04:14:49.712Z,12.90
2018-09-15T04:17:17.736Z,12.90
2018-09-15T04:19:45.812Z,12.70
2018-09-15T04:22:13.968Z,12.60
2018-09-15T04:24:42.082Z,12.40
2018-09-15T04:27:11.058Z,12.20
2018-09-15T04:29:39.102Z,12.10
2018-09-15T04:32:07.267Z,12.00
2018-09-15T04:34:35.311Z,12.00
2018-09-15T04:37:03.379Z,12.00
2018-09-15T04:39:31.484Z,12.00
2018-09-15T04:41:59.580Z,12.00
2018-09-15T04:44:27.764Z,12.00
2018-09-15T04:46:55.902Z,12.00
2018-09-15T04:49:23.940Z,12.00
2018-09-15T04:51:52.242Z,11.80
2018-09-15T04:54:20.316Z,11.70
2018-09-15T04:56:48.504Z,11.70
2018-09-15T04:59:16.576Z,11.70
2018-09-15T05:01:44.660Z,11.80
2018-09-15T05:04:12.703Z,11.60
2018-09-15T05:06:40.895Z,11.60
2018-09-15T05:09:10.706Z,11.70
2018-09-15T05:11:38.792Z,12.00
2018-09-15T05:14:07.074Z,12.10
2018-09-15T05:16:35.204Z,12.00
2018-09-15T05:19:03.404Z,11.90
2018-09-15T05:21:31.454Z,11.80
2018-09-15T05:23:59.605Z,11.80
2018-09-15T05:26:27.696Z,11.70
2018-09-15T05:28:56.143Z,11.70
2018-09-15T05:31:24.389Z,11.70
2018-09-15T05:33:52.423Z,11.80
2018-09-15T05:36:20.771Z,11.60
2018-09-15T05:38:48.969Z,11.70
2018-09-15T05:41:17.018Z,11.90
2018-09-15T05:43:45.099Z,12.00
2018-09-15T05:46:13.110Z,12.10
2018-09-15T05:48:41.235Z,12.10
2018-09-15T05:51:09.461Z,12.10
2018-09-15T05:53:37.554Z,12.30
2018-09-15T05:56:05.724Z,12.20
2018-09-15T05:58:33.764Z,12.20
2018-09-15T06:01:02.553Z,12.10
2018-09-15T06:03:30.654Z,12.20
2018-09-15T06:05:58.735Z,12.40
2018-09-15T06:08:26.853Z,12.70
2018-09-15T06:10:54.986Z,13.00
2018-09-15T06:13:23.207Z,13.20
2018-09-15T06:15:51.352Z,13.50
2018-09-15T06:18:19.484Z,13.80
2018-09-15T06:20:47.632Z,13.90
2018-09-15T06:23:15.786Z,13.90
2018-09-15T06:25:43.923Z,14.20
2018-09-15T06:28:11.977Z,14.30
2018-09-15T06:30:40.067Z,14.30
2018-09-15T06:33:08.295Z,14.20
2018-09-15T06:35:36.443Z,14.40
2018-09-15T06:38:04.658Z,14.10
2018-09-15T06:40:32.748Z,14.00
2018-09-15T06:43:00.883Z,14.00
2018-09-15T06:48:07.511Z,14.10
2018-09-15T06:50:36.020Z,14.10
2018-09-15T06:53:04.092Z,14.10
2018-09-15T06:55:32.568Z,14.10
2018-09-15T06:58:01.079Z,14.10
2018-09-15T07:00:29.398Z,14.30
2018-09-15T07:02:58.124Z,14.40
2018-09-15T07:05:26.378Z,14.50
2018-09-15T07:07:54.578Z,14.60
2018-09-15T07:10:22.795Z,14.70
2018-09-15T07:12:50.933Z,14.90
2018-09-15T07:15:19.141Z,14.90
2018-09-15T07:17:48.192Z,15.40
2018-09-15T07:20:16.519Z,15.30
2018-09-15T07:22:44.644Z,15.30
2018-09-15T07:25:12.927Z,15.20
2018-09-15T07:27:41.234Z,15.30
2018-09-15T07:30:09.639Z,15.60
2018-09-15T07:32:37.829Z,16.00
2018-09-15T07:35:06.096Z,15.80
2018-09-15T07:37:34.304Z,16.20
2018-09-15T07:40:02.444Z,16.20
2018-09-15T07:42:30.550Z,16.50
2018-09-15T07:44:58.684Z,16.40
2018-09-15T07:47:26.817Z,16.30
2018-09-15T07:49:54.910Z,16.80
2018-09-15T07:52:23.456Z,17.00
2018-09-15T07:54:51.554Z,17.50
2018-09-15T07:57:19.722Z,17.60
2018-09-15T07:59:47.855Z,17.60
2018-09-15T08:02:21.567Z,17.50
2018-09-15T08:04:50.637Z,17.50
2018-09-15T08:07:18.813Z,17.60
2018-09-15T08:09:47.259Z,17.70
2018-09-15T08:12:16.578Z,17.80
2018-09-15T08:14:44.749Z,17.90
2018-09-15T08:17:13.150Z,17.90
2018-09-15T08:19:41.367Z,17.90
2018-09-15T08:22:09.974Z,17.50
2018-09-15T08:24:38.704Z,17.60
2018-09-15T08:27:07.706Z,18.00
2018-09-15T08:29:36.906Z,18.30
2018-09-15T08:32:06.382Z,18.20
2018-09-15T08:34:35.125Z,18.30
2018-09-15T08:37:03.681Z,18.20
2018-09-15T08:39:32.002Z,18.30
2018-09-15T08:42:00.598Z,18.40
2018-09-15T08:44:29.553Z,18.20
2018-09-15T08:46:57.754Z,18.20
2018-09-15T08:49:27.205Z,18.70
2018-09-15T08:51:55.908Z,18.90
2018-09-15T08:54:24.384Z,18.40
2018-09-15T08:56:52.864Z,18.20
2018-09-15T08:59:21.272Z,18.30
2018-09-15T09:01:49.682Z,18.60
2018-09-15T09:06:58.835Z,19.30
2018-09-15T09:09:27.056Z,19.70
2018-09-15T09:11:55.214Z,19.20
2018-09-15T09:14:23.476Z,19.00
2018-09-15T09:16:51.797Z,19.10
2018-09-15T09:19:19.952Z,19.20
2018-09-15T09:21:48.696Z,19.60
2018-09-15T09:24:16.887Z,19.30
2018-09-15T09:26:45.439Z,19.60
2018-09-15T09:29:13.611Z,19.70
2018-09-15T09:31:42.257Z,19.90
2018-09-15T09:34:10.527Z,20.00
2018-09-15T09:36:38.790Z,20.00
2018-09-15T09:39:11.843Z,20.30
2018-09-15T09:41:40.226Z,20.40
2018-09-15T09:44:08.727Z,20.20
2018-09-15T09:46:37.011Z,20.20
2018-09-15T09:49:05.626Z,20.60
2018-09-15T09:51:33.813Z,20.30
2018-09-15T09:54:02.139Z,20.20
2018-09-15T09:56:30.290Z,20.30
2018-09-15T09:58:58.495Z,20.50
2018-09-15T10:01:33.156Z,20.30
2018-09-15T10:04:01.388Z,20.60
2018-09-15T10:06:29.596Z,20.60
2018-09-15T10:08:57.834Z,20.60
2018-09-15T10:11:26.005Z,20.70
2018-09-15T10:13:57.151Z,20.60
2018-09-15T10:16:25.519Z,20.50
2018-09-15T10:18:53.678Z,20.60
2018-09-15T10:21:21.923Z,20.60
2018-09-15T10:23:50.804Z,20.70
2018-09-15T10:26:19.034Z,20.80
2018-09-15T10:28:47.143Z,20.80
2018-09-15T10:31:15.398Z,20.70
2018-09-15T10:33:43.589Z,20.90
2018-09-15T10:36:11.848Z,20.60
2018-09-15T10:38:40.112Z,20.30
2018-09-15T10:41:08.208Z,20.90
2018-09-15T10:43:36.636Z,21.20
2018-09-15T10:46:04.808Z,21.40
2018-09-15T10:48:32.923Z,21.80
2018-09-15T10:51:01.141Z,22.20
2018-09-15T10:53:29.211Z,22.30
2018-09-15T10:55:57.368Z,22.70
2018-09-15T10:58:25.480Z,22.50
2018-09-15T11:00:53.748Z,22.70
2018-09-15T11:03:22.421Z,22.00
2018-09-15T11:05:51.039Z,21.50
2018-09-15T11:08:19.165Z,21.30
2018-09-15T11:10:47.330Z,21.10
2018-09-15T11:13:15.665Z,21.20
2018-09-15T11:15:43.803Z,21.10
2018-09-15T11:18:12.549Z,21.50
2018-09-15T11:20:40.640Z,21.60
2018-09-15T11:23:08.688Z,21.50
2018-09-15T11:25:37.191Z,21.70
2018-09-15T11:28:05.308Z,21.50
2018-09-15T11:30:34.241Z,21.70
2018-09-15T11:33:02.455Z,21.70
2018-09-15T11:35:31.467Z,22.00
2018-09-15T11:38:00.082Z,21.80
2018-09-15T11:40:28.158Z,22.40
2018-09-15T11:42:56.292Z,22.50
2018-09-15T11:45:24.613Z,22.40
2018-09-15T11:47:52.811Z,22.30
2018-09-15T11:50:21.016Z,22.60
2018-09-15T11:52:49.300Z,22.20
2018-09-15T11:55:18.270Z,21.90
2018-09-15T11:57:46.373Z,21.70
2018-09-15T12:00:17.821Z,21.60
2018-09-15T12:02:46.200Z,21.70
2018-09-15T12:05:14.464Z,22.30
2018-09-15T12:07:42.747Z,22.10
2018-09-15T12:10:10.964Z,22.00
2018-09-15T12:12:39.561Z,21.80
2018-09-15T12:15:07.826Z,21.20
2018-09-15T12:17:36.125Z,21.70
2018-09-15T12:20:04.621Z,21.80
2018-09-15T12:22:32.990Z,21.70
2018-09-15T12:25:01.557Z,21.70
2018-09-15T12:27:29.769Z,21.70
2018-09-15T12:29:58.634Z,21.60
2018-09-15T12:32:26.830Z,21.70
2018-09-15T12:34:55.021Z,21.70
2018-09-15T12:37:23.239Z,21.60
2018-09-15T12:39:51.412Z,21.70
2018-09-15T12:42:19.796Z,21.60
2018-09-15T12:44:48.065Z,22.20
2018-09-15T12:47:16.425Z,22.60
2018-09-15T12:49:44.581Z,22.40
2018-09-15T12:52:12.965Z,22.40
2018-09-15T12:54:41.090Z,22.70
2018-09-15T12:57:09.193Z,22.80
2018-09-15T12:59:37.412Z,22.80
2018-09-15T13:02:05.742Z,21.90
2018-09-15T13:04:33.994Z,22.40
2018-09-15T13:07:02.276Z,22.60
2018-09-15T13:09:30.436Z,22.30
2018-09-15T13:11:58.669Z,23.10
2018-09-15T13:14:26.897Z,22.80
2018-09-15T13:16:55.066Z,23.30
2018-09-15T13:19:23.884Z,23.60
2018-09-15T13:21:52.173Z,24.20
2018-09-15T13:24:20.439Z,23.40
2018-09-15T13:26:49.330Z,23.40
2018-09-15T13:29:18.453Z,23.20
2018-09-15T13:31:46.625Z,23.10
2018-09-15T13:34:14.753Z,23.00
2018-09-15T13:36:42.996Z,22.70
2018-09-15T13:39:11.927Z,22.30
2018-09-15T13:41:40.181Z,22.10
2018-09-15T13:44:08.578Z,21.50
2018-09-15T13:46:36.928Z,21.60
2018-09-15T13:49:05.484Z,22.00
2018-09-15T13:51:33.616Z,22.20
2018-09-15T13:54:01.798Z,22.50
2018-09-15T13:56:29.962Z,22.60
2018-09-15T13:58:58.335Z,23.00
2018-09-15T14:01:26.432Z,23.00
2018-09-15T14:03:54.684Z,22.90
2018-09-15T14:06:22.911Z,23.90
2018-09-15T14:08:51.145Z,24.60
2018-09-15T14:11:19.507Z,24.20
2018-09-15T14:13:47.742Z,24.20
2018-09-15T14:16:16.120Z,26.20
2018-09-15T14:18:44.397Z,26.10
2018-09-15T14:21:12.968Z,26.20
2018-09-15T14:23:41.165Z,24.90
2018-09-15T14:26:09.470Z,23.90
2018-09-15T14:28:37.802Z,22.60
2018-09-15T14:31:06.141Z,22.30
2018-09-15T14:33:41.188Z,22.20
2018-09-15T14:36:09.565Z,23.00
2018-09-15T14:38:38.483Z,24.70
2018-09-15T14:41:07.782Z,26.20
2018-09-15T14:43:36.016Z,27.30
2018-09-15T14:46:04.417Z,28.00
2018-09-15T14:48:32.677Z,27.80
2018-09-15T14:51:00.902Z,28.20
2018-09-15T14:53:29.136Z,27.70
2018-09-15T14:55:57.400Z,27.40
2018-09-15T14:58:25.517Z,28.50
2018-09-15T15:00:53.716Z,26.10
2018-09-15T15:03:22.283Z,25.10
2018-09-15T15:05:50.375Z,24.60
2018-09-15T15:08:18.524Z,24.30
2018-09-15T15:10:46.665Z,24.10
2018-09-15T15:13:14.808Z,23.70
2018-09-15T15:15:42.957Z,23.40
2018-09-15T15:18:11.088Z,24.20
2018-09-15T15:20:39.295Z,24.40
2018-09-15T15:23:07.492Z,23.70
2018-09-15T15:25:35.885Z,22.70
2018-09-15T15:28:04.205Z,22.10
2018-09-15T15:30:32.555Z,21.60
2018-09-15T15:33:00.718Z,21.60
2018-09-15T15:35:28.939Z,21.60
2018-09-15T15:37:57.088Z,21.70
2018-09-15T15:40:25.227Z,21.70
2018-09-15T15:42:54.094Z,21.60
2018-09-15T15:45:23.145Z,21.60
2018-09-15T15:47:51.445Z,21.60
2018-09-15T15:50:19.901Z,21.60
2018-09-15T15:52:47.990Z,21.60
2018-09-15T15:55:16.154Z,21.60
2018-09-15T15:57:44.441Z,21.50
2018-09-15T16:00:12.754Z,21.10
2018-09-15T16:02:40.904Z,21.30
2018-09-15T16:05:09.146Z,21.20
2018-09-15T16:07:37.317Z,21.20
2018-09-15T16:10:05.805Z,21.20
2018-09-15T16:12:34.813Z,20.90
2018-09-15T16:15:03.710Z,21.00
2018-09-15T16:17:31.910Z,21.10
2018-09-15T16:20:00.095Z,20.90
2018-09-15T16:22:28.195Z,20.80
2018-09-15T16:24:56.468Z,20.90
2018-09-15T16:27:25.234Z,20.80
2018-09-15T16:29:53.568Z,20.90
2018-09-15T16:32:21.808Z,20.90
2018-09-15T16:34:50.042Z,20.70
2018-09-15T16:37:18.305Z,20.90
2018-09-15T16:39:46.486Z,20.70
2018-09-15T16:42:14.682Z,20.70
2018-09-15T16:44:42.922Z,20.60
2018-09-15T16:47:11.101Z,20.40
2018-09-15T16:49:39.480Z,20.30
2018-09-15T16:52:08.462Z,20.30
2018-09-15T16:54:36.762Z,20.20
2018-09-15T16:57:11.662Z,20.30
2018-09-15T16:59:39.992Z,20.10
2018-09-15T17:02:08.662Z,20.10
2018-09-15T17:04:37.073Z,20.10
2018-09-15T17:07:05.572Z,20.10
2018-09-15T17:09:33.804Z,20.00
2018-09-15T17:12:02.012Z,20.00
2018-09-15T17:14:30.300Z,19.90
2018-09-15T17:16:58.439Z,19.80
2018-09-15T17:19:27.200Z,19.80
2018-09-15T17:21:55.405Z,19.70
2018-09-15T17:24:23.752Z,19.60
2018-09-15T17:26:52.066Z,19.50
2018-09-15T17:29:20.240Z,19.50
2018-09-15T17:31:48.310Z,19.30
2018-09-15T17:34:16.552Z,19.30
2018-09-15T17:36:44.733Z,19.30
2018-09-15T17:39:12.918Z,19.20
2018-09-15T17:41:41.212Z,19.10
2018-09-15T17:44:09.565Z,19.00
2018-09-15T17:46:38.006Z,18.90
2018-09-15T17:49:06.276Z,18.80
2018-09-15T17:51:34.537Z,18.70
2018-09-15T17:54:02.793Z,18.60
2018-09-15T17:56:30.889Z,18.60
2018-09-15T17:58:59.173Z,18.50
2018-09-15T18:01:28.522Z,18.30
2018-09-15T18:03:57.225Z,18.20
2018-09-15T18:06:26.038Z,18.10
2018-09-15T18:08:54.408Z,18.00
2018-09-15T18:11:22.876Z,17.80
2018-09-15T18:13:51.193Z,17.80
2018-09-15T18:16:19.419Z,17.80
2018-09-15T18:18:47.676Z,17.70
2018-09-15T18:21:16.039Z,17.70
2018-09-15T18:23:44.406Z,17.70
2018-09-15T18:26:12.954Z,17.60
2018-09-15T18:28:41.579Z,17.50
2018-09-15T18:31:10.782Z,17.40
2018-09-15T18:33:39.448Z,17.40
2018-09-15T18:36:08.521Z,17.30
2018-09-15T18:38:36.711Z,17.00
2018-09-15T18:41:06.108Z,17.00
2018-09-15T18:43:35.542Z,17.00
2018-09-15T18:46:03.898Z,16.90
2018-09-15T18:48:32.322Z,16.80
2018-09-15T18:51:00.618Z,16.70
2018-09-15T18:53:28.960Z,16.60
2018-09-15T18:55:57.282Z,16.50
2018-09-15T18:58:25.829Z,16.40
2018-09-15T19:00:54.714Z,16.40
2018-09-15T19:03:23.567Z,16.40
2018-09-15T19:05:51.985Z,16.30
2018-09-15T19:08:20.890Z,16.30
2018-09-15T19:10:49.334Z,16.20
2018-09-15T19:13:17.774Z,16.20
2018-09-15T19:15:46.370Z,16.10
2018-09-15T19:18:15.268Z,16.00
2018-09-15T19:20:43.579Z,16.00
2018-09-15T19:23:12.574Z,15.90
2018-09-15T19:25:40.836Z,15.90
2018-09-15T19:28:10.439Z,15.90
2018-09-15T19:30:39.005Z,15.90
2018-09-15T19:33:07.408Z,15.90
2018-09-15T19:35:35.795Z,15.80
2018-09-15T19:38:05.358Z,15.80
2018-09-15T19:40:34.416Z,15.70
2018-09-15T19:43:02.649Z,15.50
2018-09-15T19:45:32.014Z,15.40
2018-09-15T19:48:01.055Z,15.30
2018-09-15T19:50:29.565Z,15.10
2018-09-15T19:52:58.959Z,15.00
2018-09-15T19:55:27.201Z,14.90
2018-09-15T19:57:55.400Z,14.90
2018-09-15T20:00:23.740Z,14.80
2018-09-15T20:02:52.053Z,14.80
2018-09-15T20:05:20.524Z,14.80
2018-09-15T20:07:48.744Z,14.90
2018-09-15T20:10:17.138Z,15.00
2018-09-15T20:12:45.555Z,15.00
2018-09-15T20:15:22.748Z,14.90
2018-09-15T20:17:50.304Z,15.00
2018-09-15T20:20:16.895Z,15.00
2018-09-15T20:22:45.415Z,15.00
2018-09-15T20:25:13.688Z,14.90
2018-09-15T20:27:42.438Z,14.70
2018-09-15T20:30:11.256Z,14.50
2018-09-15T20:32:39.585Z,14.30
2018-09-15T20:35:08.231Z,14.30
2018-09-15T20:37:37.595Z,14.30
2018-09-15T20:40:06.681Z,14.10
2018-09-15T20:42:34.909Z,14.20
2018-09-15T20:45:04.437Z,14.20
2018-09-15T20:47:32.784Z,14.10
2018-09-15T20:50:02.051Z,14.20
2018-09-15T20:52:30.366Z,14.20
2018-09-15T20:54:58.841Z,14.20
2018-09-15T20:57:27.214Z,14.20
2018-09-15T20:59:55.391Z,14.10
2018-09-15T21:02:23.964Z,14.00
2018-09-15T21:04:52.543Z,14.00
2018-09-15T21:07:21.032Z,13.90
2018-09-15T21:09:49.740Z,13.90
2018-09-15T21:12:18.563Z,13.90
2018-09-15T21:14:47.151Z,13.80
2018-09-15T21:17:15.541Z,13.70
2018-09-15T21:19:43.777Z,13.80
2018-09-15T21:22:11.953Z,13.80
2018-09-15T21:24:40.080Z,13.80
2018-09-15T21:27:08.413Z,13.80
2018-09-15T21:29:36.795Z,13.70
2018-09-15T21:32:05.087Z,13.60
2018-09-15T21:34:33.273Z,13.60
2018-09-15T21:37:01.490Z,13.50
2018-09-15T21:39:29.662Z,13.40
2018-09-15T21:41:57.816Z,13.30
2018-09-15T21:44:25.990Z,13.40
2018-09-15T21:46:54.140Z,13.40
2018-09-15T21:49:22.331Z,13.30
2018-09-15T21:51:50.457Z,13.30
2018-09-15T21:54:18.611Z,13.30
2018-09-15T21:56:46.767Z,13.30
2018-09-15T21:59:14.875Z,13.40
2018-09-15T22:01:43.055Z,13.40
2018-09-15T22:04:16.856Z,13.50
2018-09-15T22:06:44.979Z,13.50
2018-09-15T22:09:13.466Z,13.50
2018-09-15T22:11:42.163Z,13.40
2018-09-15T22:14:11.179Z,13.20
2018-09-15T22:16:39.624Z,13.10
2018-09-15T22:19:08.486Z,13.00
2018-09-15T22:21:36.731Z,12.90
2018-09-15T22:24:05.041Z,12.40
2018-09-15T22:26:33.543Z,12.90
2018-09-15T22:29:01.904Z,12.90
2018-09-15T22:31:30.115Z,12.90
2018-09-15T22:33:59.193Z,12.90
2018-09-15T22:36:27.480Z,12.90
2018-09-15T22:38:55.698Z,12.90
2018-09-15T22:41:23.871Z,12.80
2018-09-15T22:43:52.011Z,12.80
2018-09-15T22:46:20.595Z,12.70
2018-09-15T22:48:48.680Z,12.70
2018-09-15T22:51:16.771Z,12.80
2018-09-15T22:53:45.142Z,12.70
2018-09-15T22:56:13.252Z,12.70
2018-09-15T22:58:41.352Z,12.60
2018-09-15T23:01:09.464Z,12.60
2018-09-15T23:03:37.617Z,12.60
2018-09-15T23:06:05.735Z,12.50
2018-09-15T23:08:33.847Z,12.50
2018-09-15T23:11:01.958Z,12.40
2018-09-15T23:13:30.249Z,12.40
2018-09-15T23:15:58.428Z,12.30
2018-09-15T23:18:26.559Z,12.30
2018-09-15T23:20:54.687Z,12.30
2018-09-15T23:23:23.400Z,12.30
2018-09-15T23:25:51.468Z,12.30
2018-09-15T23:28:19.561Z,12.20
2018-09-15T23:30:47.705Z,12.10
2018-09-15T23:33:15.798Z,12.10
2018-09-15T23:35:44.025Z,12.10
2018-09-15T23:38:12.077Z,12.10
2018-09-15T23:40:40.135Z,12.20
2018-09-15T23:43:08.336Z,12.30
2018-09-15T23:45:36.440Z,12.30
2018-09-15T23:48:04.587Z,12.30
2018-09-15T23:50:32.790Z,12.20
2018-09-15T23:53:00.847Z,12.10
2018-09-15T23:55:28.868Z,12.10
2018-09-15T23:57:56.931Z,12.10
